Aviation Digital Data Service (ADDS)

Output produced by METARs form (1455 UTC 22 April 2019)
found at http://www.aviationweather.gov/metar/data/
 
Forecast for: GOBD (DAKAR/DIAGNE , SN)
Text: TAF GOBD 221130Z 2212/2318 35015KT CAVOK
Forecast period: 1200 UTC 22 April 2019 to 1800 UTC 23 April 2019
Forecast type: FROM: standard forecast or significant change
Winds: from the N (350 degrees) at 17 MPH (15 knots; 7.7 m/s)
Visibility: 6 or more miles 10+ km)
Ceiling: unknown
Clouds: missing
Weather: NSW  (no significant weather)
Text: TEMPO 2303/2309 BKN005
Forecast period: 0300 to 0900 UTC 23 April 2019
Forecast type: TEMPORARY: The following changes expected for less than half the time period
Visibility: missing
Ceiling: 500 feet AGL
Clouds: broken clouds at 500 feet AGL
Weather: no significant weather forecast for this period